Flight Track Log - Related Links

Times and Time Zones

All times are in EDT time to prevent confusion due to time zone crossing. See the UAL252 flight status page for this flight to view local times or setup timezone preferences in your user account.

Time Position Orientation Groundspeed Altitude Reporting Facility
EDT Latitude Longitude Course Direction KTS MPH feet Rate Location/Type
Thu 06:03:38 PM 39.8400 -104.7422 255° West 181 208 6,600  Level Denver Center
Thu 06:04:41 PM 39.8233 -104.8247 255° West 231 266 8,600 1,872 Climbing Denver Center
Thu 06:05:43 PM 39.7844 -104.9058 238° Southwest 281 323 10,500 2,032 Climbing Denver Center
Thu 06:06:45 PM 39.6906 -104.9256 189° South 328 377 12,800 2,081 Climbing Denver Center
Thu 06:07:47 PM 39.5914 -104.8831 162° South 380 437 14,800 2,129 Climbing Denver Center
Thu 06:08:49 PM 39.4861 -104.8131 153° Southeast 401 461 17,200 1,887 Climbing Denver Center
Thu 06:09:51 PM 39.3747 -104.7561 158° South 431 496 18,700 1,597 Climbing Denver Center
Thu 06:10:53 PM 39.2919 -104.6536 136° Southeast 424 488 20,500 1,742 Climbing Denver Center
Thu 06:11:55 PM 39.1950 -104.5347 136° Southeast 442 509 22,300 1,645 Climbing Denver Center
Thu 06:12:57 PM 39.0919 -104.4483 147° Southeast 448 516 23,900 1,645 Climbing Denver Center
Thu 06:13:59 PM 38.9444 -104.4075 168° South 478 550 25,700 1,452 Climbing Denver Center
Thu 06:15:01 PM 38.8264 -104.3756 168° South 485 558 26,900 1,403 Climbing Denver Center
Thu 06:16:03 PM 38.6669 -104.3219 165° South 499 574 28,600 1,500 Climbing Denver Center
Thu 06:17:05 PM 38.5531 -104.2128 143° Southeast 498 573 30,000 1,403 Climbing Denver Center
Thu 06:18:07 PM 38.4556 -104.1069 162° South 499 574 31,500 1,548 Climbing Denver Center
Thu 06:19:09 PM 38.3400 -103.9825 140° Southeast 485 558 33,200 1,500 Climbing Denver Center
Thu 06:20:11 PM 38.2403 -103.8753 140° Southeast 487 560 34,600 871 Climbing Denver Center
Thu 06:21:13 PM 38.1247 -103.7517 140° Southeast 485 558 35,000 194 Climbing Denver Center
Thu 06:22:15 PM 38.0242 -103.6458 140° Southeast 487 560 35,000  Level Denver Center
Thu 06:23:18 PM 37.9050 -103.5206 140° Southeast 493 567 35,000  Level Denver Center
Thu 06:24:20 PM 37.8031 -103.4117 140° Southeast 497 572 35,000  Level Denver Center
Thu 06:25:22 PM 37.7019 -103.3053 140° Southeast 493 567 35,000  Level Denver Center
Thu 06:26:24 PM 37.5836 -103.1822 140° Southeast 491 565 35,000  Level Denver Center
Thu 06:27:26 PM 37.4831 -103.0747 140° Southeast 493 567 35,000  Level Denver Center
Thu 06:28:28 PM 37.3819 -102.9308 131° Southeast 491 565 35,000  Level Denver Center
Thu 06:28:52 PM 37.3528 -102.8911 133° Southeast 491 565 35,000  Level Albuquerque Center
Thu 06:29:54 PM 37.2533 -102.7475 131° Southeast 489 563 35,000  Level Albuquerque Center
Thu 06:30:56 PM 37.1669 -102.6250 131° Southeast 487 560 35,000  Level Albuquerque Center
Thu 06:31:58 PM 37.0719 -102.4897 131° Southeast 487 560 35,000  Level Albuquerque Center
Thu 06:33:12 PM 36.9592 -102.3311 132° Southeast 481 554 35,000  Level Albuquerque Center
Thu 06:34:14 PM 36.8708 -102.2072 132° Southeast 476 548 35,000  Level Albuquerque Center
Thu 06:35:16 PM 36.7794 -102.0767 131° Southeast 472 543 35,000  Level Albuquerque Center
Thu 06:36:17 PM 36.6964 -101.9633 132° Southeast 466 536 35,000  Level Albuquerque Center
Thu 06:37:19 PM 36.6003 -101.8272 131° Southeast 468 539 35,000  Level Albuquerque Center
Thu 06:38:21 PM 36.5239 -101.7228 132° Southeast 470 541 35,000  Level Albuquerque Center
Thu 06:39:23 PM 36.4369 -101.6025 132° Southeast 468 539 35,000  Level Albuquerque Center
Thu 06:40:25 PM 36.3353 -101.4619 132° Southeast 471 542 35,000  Level Albuquerque Center
Thu 06:41:26 PM 36.2433 -101.3364 132° Southeast 471 542 35,000  Level Albuquerque Center
Thu 06:42:28 PM 36.1542 -101.2144 132° Southeast 474 545 35,000  Level Albuquerque Center
Thu 06:43:30 PM 36.0636 -101.0906 132° Southeast 479 551 35,000  Level Albuquerque Center
Thu 06:44:32 PM 35.9725 -100.9686 133° Southeast 481 554 35,000  Level Albuquerque Center
Thu 06:45:33 PM 35.8817 -100.8453 132° Southeast 483 556 35,000  Level Albuquerque Center
Thu 06:46:35 PM 35.7906 -100.7225 132° Southeast 484 557 35,000 48 Level Albuquerque Center
Thu 06:47:37 PM 35.7008 -100.6019 132° Southeast 478 550 35,100  Climbing Albuquerque Center
Thu 06:48:38 PM 35.5956 -100.4619 133° Southeast 468 539 35,000 -780 Descending Albuquerque Center
Thu 06:49:40 PM 35.5078 -100.3436 132° Southeast 467 537 33,500 -968 Descending Albuquerque Center
Thu 06:50:42 PM 35.4197 -100.2283 133° Southeast 465 535 33,000 -244 Descending Albuquerque Center
Thu 06:51:43 PM 35.3328 -100.1136 133° Southeast 460 529 33,000  Level Albuquerque Center
Thu 06:52:45 PM 35.2464 -100.0003 133° Southeast 458 527 33,000  Level Albuquerque Center
Thu 06:53:46 PM 35.1614 -99.8875 133° Southeast 453 521 33,000  Level Albuquerque Center
Thu 06:54:48 PM 35.0744 -99.7761 134° Southeast 452 520 33,000  Level Albuquerque Center
Thu 06:55:50 PM 34.9889 -99.6625 133° Southeast 454 522 33,000  Level Albuquerque Center
Thu 06:56:39 PM 34.9061 -99.5503 132° Southeast 459 528 33,000  Level Fort Worth Center
Thu 06:57:39 PM 34.8389 -99.4603 132° Southeast 459 528 33,000  Level Fort Worth Center
Thu 06:58:39 PM 34.7364 -99.3414 136° Southeast 459 528 33,000  Level Fort Worth Center
Thu 06:59:39 PM 34.6483 -99.2258 133° Southeast 459 528 33,000  Level Fort Worth Center
Thu 07:00:39 PM 34.5603 -99.1131 133° Southeast 459 528 33,000  Level Fort Worth Center
Thu 07:01:39 PM 34.4719 -99.0006 134° Southeast 459 528 33,000  Level Fort Worth Center
Thu 07:02:39 PM 34.3794 -98.8856 134° Southeast 464 534 33,000  Level Fort Worth Center
Thu 07:03:39 PM 34.2850 -98.7658 134° Southeast 470 541 33,000  Level Fort Worth Center
Thu 07:04:39 PM 34.1922 -98.6489 134° Southeast 476 548 33,000 -900 Level Fort Worth Center
Thu 07:05:39 PM 34.0994 -98.5347 134° Southeast 476 548 31,200 -2,150 Descending Fort Worth Center
Thu 07:06:39 PM 34.0064 -98.4158 133° Southeast 483 556 28,700 -1,850 Descending Fort Worth Center
Thu 07:07:39 PM 33.9114 -98.2994 135° Southeast 483 556 27,500 -1,750 Descending Fort Worth Center
Thu 07:08:39 PM 33.8058 -98.1608 132° Southeast 490 564 25,200 -2,650 Descending Fort Worth Center
Thu 07:09:39 PM 33.7147 -98.0528 135° Southeast 484 557 22,200 -3,000 Descending Fort Worth Center
Thu 07:10:39 PM 33.6253 -97.9422 134° Southeast 469 540 19,200 -2,850 Descending Fort Worth Center
Thu 07:11:39 PM 33.5403 -97.8397 135° Southeast 448 516 16,500 -2,700 Descending Fort Worth Center
Thu 07:12:39 PM 33.4653 -97.7472 134° Southeast 425 489 13,800 -1,750 Descending Fort Worth Center
Thu 07:13:39 PM 33.3822 -97.6447 134° Southeast 399 459 13,000 -1,050 Descending Fort Worth Center
Thu 07:14:39 PM 33.3133 -97.5625 135° Southeast 355 409 11,700 -1,000 Descending Fort Worth Center
Thu 07:15:39 PM 33.2531 -97.4881 134° Southeast 327 376 11,000 -350 Descending Fort Worth Center
Thu 07:16:39 PM 33.1925 -97.4183 136° Southeast 305 351 11,000  Level Fort Worth Center
Thu 07:17:39 PM 33.1319 -97.3489 136° Southeast 305 351 11,000  Level Fort Worth Center
Thu 07:18:39 PM 33.0756 -97.2844 136° Southeast 305 351 11,000  Level Fort Worth Center
Thu 07:19:39 PM 33.0128 -97.2078 134° Southeast 299 344 11,000  Level Fort Worth Center
Thu 07:20:39 PM 32.9564 -97.1733 153° Southeast 274 315 11,000 -450 Level Fort Worth Center
Thu 07:21:39 PM 32.8811 -97.1711 179° South 249 287 10,100 -1,000 Descending Fort Worth Center
Thu 07:22:39 PM 32.8186 -97.1686 178° South 249 287 9,000 -1,300 Descending Fort Worth Center
Thu 07:23:39 PM 32.7433 -97.1664 179° South 255 293 7,500 -1,300 Descending Fort Worth Center
Thu 07:24:39 PM 32.6828 -97.1667 180° South 250 288 6,400 -1,400 Descending Fort Worth Center
Thu 07:25:39 PM 32.6078 -97.1644 179° South 250 288 4,700 -967 Descending Fort Worth Center
Thu 07:27:39 PM 32.5833 -97.0500 104° East 176 203 3,500 -333 Descending Dallas / Fort Worth TRACON
Thu 07:28:39 PM 32.6333 -97.0500 360° North 185 213 3,700 105 Climbing Dallas / Fort Worth TRACON
Thu 07:29:33 PM 32.6667 -97.0500 360° North 142 163 3,700 -50 Level Dallas / Fort Worth TRACON
Thu 07:30:39 PM 32.7167 -97.0500 360° North 147 169 3,600 -190 Descending Dallas / Fort Worth TRACON
Thu 07:31:39 PM 32.7500 -97.0500 360° North 124 143 3,300 -550 Descending Dallas / Fort Worth TRACON
Thu 07:32:39 PM 32.7833 -97.0500 360° North 118 136 2,500 -800 Descending Dallas / Fort Worth TRACON

Login

Don't have an account? Register now (free) for customized features, flight alerts, and more!